Time;durP1;ratioP1;P1;durP2;ratioP2;P2;SDS_P1;SDS_P2;PMS_P1;PMS_P2;Temp;Humidity;BMP_temperature;BMP_pressure;BME280_temperature;BME280_humidity;BME280_pressure;Samples;Min_cycle;Max_cycle;Signal;HPM_P1;HPM_P2
2022/07/12 00:00:29;;;;;;;7.40;6.80;;;15.60;99.90;;;16.40;83.32;98572.88;5139828;28;20318;-58
2022/07/12 00:03:02;;;;;;;7.22;6.70;;;15.60;99.90;;;16.45;83.54;98573.06;5139466;28;20678;-57
2022/07/12 00:05:35;;;;;;;7.97;7.30;;;15.70;99.90;;;16.49;83.70;98585.31;5147536;28;20271;-59
2022/07/12 00:08:08;;;;;;;7.30;6.70;;;15.70;99.90;;;16.50;83.93;98581.91;5137100;28;20223;-60
2022/07/12 00:10:41;;;;;;;7.32;6.82;;;15.70;99.90;;;16.58;82.13;98588.28;5137514;28;20587;-59
2022/07/12 00:13:16;;;;;;;7.22;6.53;;;15.70;99.90;;;16.49;82.91;98579.25;5134884;28;20240;-61
2022/07/12 00:15:49;;;;;;;6.93;6.43;;;15.70;99.90;;;16.50;82.88;98581.03;5139536;28;20235;-60
2022/07/12 00:18:22;;;;;;;6.90;6.30;;;15.70;99.90;;;16.51;82.39;98582.78;5137542;28;20214;-60
2022/07/12 00:20:56;;;;;;;7.32;6.72;;;15.70;99.90;;;16.36;83.13;98582.97;5134164;28;20759;-60
2022/07/12 00:23:29;;;;;;;6.88;6.38;;;15.60;99.90;;;16.31;83.44;98584.44;5138079;28;20201;-59
2022/07/12 00:26:04;;;;;;;7.05;6.45;;;15.50;99.90;;;16.29;82.74;98588.66;5135092;28;20686;-60
2022/07/12 00:28:38;;;;;;;7.00;6.40;;;15.50;99.90;;;16.26;82.91;98588.53;5139053;28;20642;-59
2022/07/12 00:31:12;;;;;;;8.00;7.40;;;15.40;99.90;;;16.13;83.16;98595.66;5135108;28;20286;-62
2022/07/12 00:33:45;;;;;;;7.50;6.90;;;15.30;99.90;;;16.11;83.29;98596.41;5136293;28;20243;-61
2022/07/12 00:36:18;;;;;;;7.43;6.93;;;15.30;99.90;;;16.12;83.27;98583.59;5137316;28;20208;-60
2022/07/12 00:38:52;;;;;;;7.00;6.40;;;15.30;99.90;;;16.12;83.57;98588.75;5135708;28;20203;-60
2022/07/12 00:41:25;;;;;;;8.23;7.53;;;15.30;99.90;;;16.17;83.06;98587.28;5135877;28;20728;-60
2022/07/12 00:43:59;;;;;;;8.05;7.35;;;15.30;99.90;;;16.05;83.45;98591.84;5135401;28;20232;-59
2022/07/12 00:46:32;;;;;;;7.50;6.90;;;15.30;99.90;;;16.03;83.85;98584.88;5141169;28;20207;-58
2022/07/12 00:49:06;;;;;;;7.00;6.50;;;15.20;99.90;;;16.04;83.72;98590.09;5139346;28;20197;-58
2022/07/12 00:51:39;;;;;;;8.15;7.45;;;15.20;99.90;;;16.08;83.46;98581.72;5138866;28;20259;-60
2022/07/12 00:54:12;;;;;;;7.38;6.78;;;15.20;99.90;;;16.07;83.89;98585.06;5137197;28;20235;-60
2022/07/12 00:56:45;;;;;;;7.35;6.80;;;15.30;99.90;;;16.09;84.03;98573.16;5141455;28;20723;-58
2022/07/12 00:59:20;;;;;;;7.85;7.25;;;15.30;99.90;;;16.09;83.73;98578.31;5141162;28;20243;-58
2022/07/12 01:01:53;;;;;;;7.07;6.57;;;15.30;99.90;;;16.07;83.49;98584.19;5137101;28;20215;-60
2022/07/12 01:04:26;;;;;;;8.00;7.40;;;15.30;99.90;;;16.00;83.40;98575.28;5144046;28;20208;-61
2022/07/12 01:07:00;;;;;;;7.50;7.00;;;15.20;99.90;;;15.98;83.36;98576.91;5136968;28;20200;-59
2022/07/12 01:09:34;;;;;;;7.72;7.13;;;15.20;99.90;;;15.94;83.87;98578.47;5144124;28;20254;-59
2022/07/12 01:12:08;;;;;;;7.13;6.63;;;15.20;99.90;;;15.94;83.43;98570.72;5136666;28;20323;-60
2022/07/12 01:14:42;;;;;;;7.18;6.55;;;15.20;99.90;;;15.97;83.49;98575.16;5141986;28;20699;-59
2022/07/12 01:17:15;;;;;;;7.97;7.28;;;15.20;99.90;;;15.85;83.44;98571.97;5138445;28;20941;-60
2022/07/12 01:19:49;;;;;;;7.20;6.70;;;15.00;99.90;;;15.82;83.64;98576.97;5143082;28;20231;-60
2022/07/12 01:22:35;;;;;;;8.40;7.70;;;15.00;99.90;;;15.77;83.44;98580.25;5141180;28;20236;-58
2022/07/12 01:25:10;;;;;;;7.43;6.82;;;15.00;99.90;;;15.85;83.97;98575.47;5141982;28;20240;-60
2022/07/12 01:27:43;;;;;;;7.05;6.50;;;15.00;99.90;;;15.81;84.22;98575.22;5138890;28;20235;-59
2022/07/12 01:30:17;;;;;;;7.57;6.95;;;15.00;99.90;;;15.85;84.27;98579.69;5140339;28;20235;-57
2022/07/12 01:32:51;;;;;;;7.18;6.57;;;15.00;99.90;;;15.76;84.45;98575.00;5140782;28;20251;-59
2022/07/12 01:35:26;;;;;;;6.30;5.90;;;15.00;99.90;;;15.71;84.29;98582.53;5139778;28;20255;-61
2022/07/12 01:37:59;;;;;;;7.20;6.60;;;14.90;99.90;;;15.73;84.06;98583.47;5139538;28;20251;-60
2022/07/12 01:40:35;;;;;;;6.82;6.32;;;14.90;99.90;;;15.70;84.56;98578.16;5139858;28;20699;-60
2022/07/12 01:43:09;;;;;;;7.43;6.93;;;14.90;99.90;;;15.74;85.96;98580.09;5136646;28;20622;-60
2022/07/12 01:45:42;;;;;;;7.82;7.18;;;15.00;99.90;;;15.79;86.64;98572.56;5137876;28;20318;-60
2022/07/12 01:48:15;;;;;;;7.57;6.78;;;15.10;99.90;;;15.82;85.85;98577.84;5139061;28;20236;-60
2022/07/12 01:50:49;;;;;;;6.80;6.20;;;15.20;99.90;;;15.84;85.06;98580.53;5141149;28;20639;-60
2022/07/12 01:53:22;;;;;;;7.10;6.60;;;15.10;99.90;;;15.81;84.94;98585.53;5139257;28;20207;-60
2022/07/12 01:55:56;;;;;;;7.57;7.00;;;15.10;99.90;;;15.81;84.93;98580.38;5139238;28;20552;-61
2022/07/12 01:58:30;;;;;;;6.93;6.22;;;15.00;99.90;;;15.77;84.83;98580.25;5137088;28;20203;-60
2022/07/12 02:01:03;;;;;;;6.80;6.30;;;15.00;99.90;;;15.75;84.97;98576.69;5137334;28;20216;-59
2022/07/12 02:03:36;;;;;;;6.63;6.13;;;15.00;99.90;;;15.77;84.35;98580.25;5140351;28;20306;-60
2022/07/12 02:06:10;;;;;;;6.68;6.18;;;15.00;99.90;;;15.75;84.88;98571.53;5140360;28;20204;-60
2022/07/12 02:08:43;;;;;;;7.35;6.72;;;15.00;99.90;;;15.71;84.92;98572.22;5137603;28;20668;-60
2022/07/12 02:11:18;;;;;;;6.88;6.38;;;15.00;99.90;;;15.69;84.73;98570.38;5133085;28;20667;-60
2022/07/12 02:13:51;;;;;;;6.63;6.13;;;14.90;99.90;;;15.64;85.27;98572.69;5136952;28;20422;-60
2022/07/12 02:16:24;;;;;;;7.35;6.75;;;14.90;99.90;;;15.63;85.56;98576.06;5138537;28;20296;-60
2022/07/12 02:18:57;;;;;;;6.95;6.43;;;14.90;99.90;;;15.57;85.56;98570.63;5136582;28;20200;-60
2022/07/12 02:21:32;;;;;;;6.43;5.93;;;14.80;99.90;;;15.48;84.89;98571.06;5139732;28;20318;-60
2022/07/12 02:24:06;;;;;;;6.22;5.75;;;14.70;99.90;;;15.42;85.87;98572.44;5135593;28;20310;-61
2022/07/12 02:26:40;;;;;;;6.30;5.80;;;14.60;99.90;;;15.39;85.29;98565.44;5140271;28;20278;-59
2022/07/12 02:29:13;;;;;;;7.10;6.60;;;14.60;99.90;;;15.24;85.60;98565.56;5138551;28;20719;-59
2022/07/12 02:31:47;;;;;;;6.65;6.22;;;14.50;99.90;;;15.19;86.25;98563.56;5133368;28;20660;-60
2022/07/12 02:34:20;;;;;;;6.78;6.28;;;14.40;99.90;;;15.23;85.99;98566.38;5135588;28;20258;-59
2022/07/12 02:36:53;;;;;;;6.47;6.05;;;14.40;99.90;;;15.22;86.63;98574.00;5138666;28;20228;-58
2022/07/12 02:39:26;;;;;;;7.03;6.53;;;14.50;99.90;;;15.25;86.57;98572.50;5135543;28;20331;-59
2022/07/12 02:42:01;;;;;;;6.10;5.57;;;14.50;99.90;;;15.22;85.88;98569.78;5132386;28;20668;-59
2022/07/12 02:44:34;;;;;;;7.28;6.60;;;14.50;99.90;;;15.20;85.59;98570.50;5139568;28;20231;-60
2022/07/12 02:47:07;;;;;;;6.53;6.03;;;14.40;99.90;;;15.11;86.16;98573.50;5137593;28;20231;-60
2022/07/12 02:49:40;;;;;;;6.68;6.18;;;14.40;99.90;;;15.09;86.02;98572.53;5137375;28;20212;-60
2022/07/12 02:52:13;;;;;;;6.90;6.40;;;14.30;99.90;;;15.07;85.75;98571.56;5138159;28;20260;-58
2022/07/12 02:54:46;;;;;;;6.80;6.30;;;14.20;99.90;;;15.03;85.75;98574.78;5138863;28;20625;-60
2022/07/12 02:57:21;;;;;;;6.65;5.95;;;14.20;99.90;;;15.01;86.13;98574.69;5133064;28;20228;-59
2022/07/12 02:59:54;;;;;;;7.10;6.50;;;14.20;99.90;;;14.96;86.59;98576.16;5137781;28;20230;-60
2022/07/12 03:02:27;;;;;;;6.07;5.68;;;14.20;99.90;;;14.96;87.36;98578.72;5136284;28;20220;-60
2022/07/12 03:05:00;;;;;;;6.40;5.90;;;14.20;99.90;;;14.93;87.21;98578.56;5137824;28;20213;-60
2022/07/12 03:07:33;;;;;;;6.45;6.05;;;14.20;99.90;;;14.92;86.75;98581.06;5137514;28;20227;-60
2022/07/12 03:10:07;;;;;;;6.07;5.60;;;14.20;99.90;;;14.89;85.95;98580.91;5133360;28;20251;-59
2022/07/12 03:12:42;;;;;;;6.05;5.65;;;14.10;99.90;;;14.87;86.90;98586.84;5138997;28;20223;-58
2022/07/12 03:15:15;;;;;;;5.95;5.55;;;14.10;99.90;;;14.83;86.02;98587.50;5135247;28;20293;-58
2022/07/12 03:17:48;;;;;;;6.15;5.75;;;14.10;99.90;;;14.88;87.01;98587.75;5134976;28;20634;-60
2022/07/12 03:20:21;;;;;;;6.70;6.30;;;14.10;99.90;;;14.82;86.52;98590.00;5137372;28;20341;-60
2022/07/12 03:22:54;;;;;;;6.32;5.82;;;14.00;99.90;;;14.80;86.75;98592.50;5134387;28;20278;-59
2022/07/12 03:25:27;;;;;;;5.57;5.07;;;14.00;99.90;;;14.79;86.03;98590.75;5134771;28;20208;-59
2022/07/12 03:28:02;;;;;;;6.47;5.97;;;14.00;99.90;;;14.78;86.30;98596.69;5136657;28;20240;-60
2022/07/12 03:30:35;;;;;;;6.50;6.03;;;13.90;99.90;;;14.80;86.21;98600.22;5139759;28;20667;-60
2022/07/12 03:33:08;;;;;;;6.35;5.88;;;14.00;99.90;;;14.81;87.21;98603.69;5139633;28;20221;-58
2022/07/12 03:35:41;;;;;;;6.40;5.90;;;14.00;99.90;;;14.72;87.31;98606.66;5139094;28;20649;-56
2022/07/12 03:38:14;;;;;;;6.40;5.93;;;14.00;99.90;;;14.76;87.47;98600.84;5132687;28;20204;-59
2022/07/12 03:40:48;;;;;;;6.25;5.65;;;14.10;99.90;;;14.81;88.03;98609.69;5137819;28;20254;-58
2022/07/12 03:43:22;;;;;;;6.65;6.15;;;14.10;99.90;;;14.81;87.32;98599.41;5134214;28;20332;-59
2022/07/12 03:45:56;;;;;;;5.40;5.00;;;14.10;99.90;;;14.85;86.74;98603.94;5134202;28;20255;-58
2022/07/12 03:48:29;;;;;;;5.88;5.47;;;14.10;99.90;;;14.85;86.19;98603.94;5136326;28;20780;-59
2022/07/12 03:51:02;;;;;;;6.05;5.55;;;14.10;99.90;;;14.85;88.26;98601.34;5137077;28;20255;-58
2022/07/12 03:53:35;;;;;;;6.40;5.90;;;14.20;99.90;;;14.85;87.56;98597.88;5137077;28;20251;-58
2022/07/12 03:56:08;;;;;;;5.68;5.28;;;14.10;99.90;;;14.86;87.06;98608.25;5140638;28;20294;-59
2022/07/12 03:58:43;;;;;;;6.07;5.68;;;14.10;99.90;;;14.86;87.34;98608.25;5137257;28;20664;-59
2022/07/12 04:01:16;;;;;;;5.72;5.32;;;14.10;99.90;;;14.84;86.86;98608.97;5130294;28;20503;-57
2022/07/12 04:03:49;;;;;;;5.97;5.57;;;14.10;99.90;;;14.84;86.87;98615.00;5137794;28;20202;-60
2022/07/12 04:06:23;;;;;;;6.40;5.90;;;14.20;99.90;;;14.90;86.42;98613.56;5135465;28;20303;-60
2022/07/12 04:08:56;;;;;;;5.57;5.28;;;14.20;99.90;;;14.95;86.75;98619.84;5137048;28;20676;-57
2022/07/12 04:11:29;;;;;;;5.43;5.03;;;14.20;99.90;;;14.95;85.70;98614.69;5134620;28;21301;-59
2022/07/12 04:14:04;;;;;;;5.70;5.30;;;14.10;99.90;;;14.93;86.50;98618.88;5136339;28;20706;-60
2022/07/12 04:16:37;;;;;;;5.53;5.22;;;14.20;99.90;;;14.94;86.52;98616.41;5139035;28;20285;-56
2022/07/12 04:19:10;;;;;;;6.43;5.93;;;14.20;99.90;;;14.93;86.48;98618.88;5138222;28;20586;-60
2022/07/12 04:21:43;;;;;;;5.80;5.40;;;14.20;99.90;;;14.95;85.83;98619.84;5138911;28;20271;-60
2022/07/12 04:24:16;;;;;;;6.15;5.75;;;14.10;99.90;;;15.00;86.10;98626.13;5134441;28;20245;-59
2022/07/12 04:26:49;;;;;;;6.40;5.90;;;14.10;99.90;;;15.01;85.61;98630.47;5141366;28;20227;-59
2022/07/12 04:29:24;;;;;;;5.70;5.28;;;14.20;99.90;;;15.05;85.28;98629.78;5137509;28;20224;-56
2022/07/12 04:31:57;;;;;;;5.95;5.45;;;14.30;99.90;;;15.12;84.88;98621.59;5139720;28;20277;-59
2022/07/12 04:34:30;;;;;;;6.20;5.80;;;14.30;99.90;;;15.23;84.50;98635.03;5140100;28;20266;-60
2022/07/12 04:37:04;;;;;;;5.90;5.50;;;14.40;99.90;;;15.33;83.96;98632.97;5139360;28;20254;-58
2022/07/12 04:39:37;;;;;;;5.90;5.50;;;14.50;99.90;;;15.42;83.75;98637.72;5139573;28;20263;-57
2022/07/12 04:42:10;;;;;;;5.97;5.47;;;14.60;99.90;;;15.52;83.33;98639.09;5141044;28;20239;-57
2022/07/12 04:44:45;;;;;;;6.10;5.70;;;14.60;99.90;;;15.63;82.31;98637.06;5138350;28;20630;-57
2022/07/12 04:47:18;;;;;;;6.32;5.75;;;14.70;99.90;;;15.68;82.21;98636.50;5135576;28;20302;-59
2022/07/12 04:49:51;;;;;;;6.85;6.25;;;14.70;99.90;;;15.69;82.30;98642.53;5133266;28;20215;-58
2022/07/12 04:52:24;;;;;;;5.68;5.28;;;14.80;99.90;;;15.73;81.96;98644.44;5138232;28;20754;-58
2022/07/12 04:54:58;;;;;;;6.18;5.78;;;14.80;99.90;;;15.79;81.57;98643.88;5138007;28;20280;-58
2022/07/12 04:57:31;;;;;;;7.03;6.53;;;14.80;99.90;;;15.77;81.73;98646.38;5138995;28;20274;-59
2022/07/12 05:00:08;;;;;;;6.80;6.22;;;14.90;99.90;;;15.75;82.55;98648.88;5136307;28;20278;-59
2022/07/12 05:02:41;;;;;;;6.28;5.88;;;14.90;99.90;;;15.79;82.13;98649.91;5144615;28;20544;-59
2022/07/12 05:05:15;;;;;;;6.43;5.97;;;14.90;99.90;;;15.68;81.60;98649.38;5137520;28;20200;-58
2022/07/12 05:07:48;;;;;;;6.82;6.22;;;14.80;99.90;;;15.72;81.85;98643.56;5141220;28;20296;-59
2022/07/12 05:10:21;;;;;;;6.20;5.70;;;14.90;99.90;;;16.18;81.78;98652.66;5140651;28;20252;-58
2022/07/12 05:12:54;;;;;;;6.53;6.03;;;15.30;99.90;;;16.68;79.57;98638.63;5142823;28;20286;-58
2022/07/12 05:15:29;;;;;;;6.68;6.18;;;15.70;99.90;;;16.89;77.73;98643.94;5135564;28;20215;-57
2022/07/12 05:18:02;;;;;;;6.53;6.00;;;15.90;99.90;;;16.78;77.18;98646.03;5141976;28;20691;-58
2022/07/12 05:20:35;;;;;;;5.82;5.40;;;15.80;99.90;;;16.76;77.38;98642.47;5139320;28;20315;-57
2022/07/12 05:23:09;;;;;;;5.78;5.38;;;15.80;99.90;;;16.79;77.42;98646.91;5137385;28;20663;-58
2022/07/12 05:25:42;;;;;;;5.55;5.15;;;15.80;99.90;;;16.88;77.86;98647.31;5137500;28;20259;-58
2022/07/12 05:28:15;;;;;;;5.82;5.32;;;15.90;99.90;;;16.92;78.18;98649.22;5139117;28;20271;-58
2022/07/12 05:30:50;;;;;;;5.65;5.15;;;16.10;99.90;;;17.30;75.66;98643.16;5139953;28;20220;-56
2022/07/12 05:33:23;;;;;;;5.35;4.93;;;16.30;99.90;;;17.47;74.87;98653.34;5136634;28;20310;-58
2022/07/12 05:35:56;;;;;;;5.40;4.97;;;16.40;99.90;;;17.58;74.32;98656.38;5135054;28;20232;-58
2022/07/12 05:38:29;;;;;;;5.10;4.70;;;16.40;99.90;;;17.87;74.24;98655.03;5138893;28;20709;-58
2022/07/12 05:41:03;;;;;;;5.10;4.70;;;16.90;99.90;;;18.28;72.99;98656.69;5137199;28;20255;-58
2022/07/12 05:43:36;;;;;;;4.75;4.43;;;17.20;99.90;;;18.44;71.96;98663.38;5137206;28;20204;-58
2022/07/12 05:46:10;;;;;;;5.10;4.80;;;17.50;99.90;;;18.94;69.86;98663.53;5135740;28;20232;-58
2022/07/12 05:48:43;;;;;;;5.28;4.88;;;17.90;99.90;;;19.55;69.13;98663.16;5136442;28;20204;-57
2022/07/12 05:54:07;;;;;;;4.75;4.35;;;18.70;99.90;;;19.95;66.06;98670.59;5134804;28;20217;-56
2022/07/12 05:56:40;;;;;;;4.97;4.60;;;18.60;99.90;;;19.80;66.34;98665.78;5135555;28;20212;-56
2022/07/12 05:59:13;;;;;;;5.07;4.68;;;18.40;99.90;;;19.78;66.38;98656.19;5127032;28;20238;-59
2022/07/12 06:01:48;;;;;;;5.07;4.60;;;18.40;99.90;;;19.86;66.64;98669.41;5136106;28;20252;-58
2022/07/12 06:04:21;;;;;;;5.22;4.75;;;18.40;99.90;;;20.02;65.34;98676.88;5132253;28;20666;-57
2022/07/12 06:06:54;;;;;;;5.60;5.20;;;18.50;99.90;;;19.98;65.92;98678.50;5135208;28;20370;-58
2022/07/12 06:09:28;;;;;;;5.43;4.93;;;18.50;99.90;;;20.42;65.07;98667.75;5132112;28;20681;-57
2022/07/12 06:12:01;;;;;;;5.28;4.88;;;18.90;99.90;;;20.78;62.66;98664.56;5138361;28;20311;-57
2022/07/12 06:14:34;;;;;;;5.55;5.15;;;19.00;99.90;;;20.48;63.20;98670.53;5139472;28;20247;-58
2022/07/12 06:17:09;;;;;;;4.45;4.15;;;18.90;99.90;;;20.52;64.05;98672.41;5137720;28;20231;-55
2022/07/12 06:19:42;;;;;;;5.28;4.78;;;18.90;99.90;;;20.36;64.03;98676.22;5141360;28;20342;-58
2022/07/12 06:22:15;;;;;;;5.65;5.20;;;18.90;99.90;;;20.19;65.13;98674.81;5138769;28;20287;-54
2022/07/12 06:24:48;;;;;;;5.00;4.60;;;18.70;99.90;;;20.29;65.03;98675.97;5130438;28;20645;-57
2022/07/12 06:27:21;;;;;;;4.93;4.53;;;18.70;99.90;;;20.22;65.63;98674.91;5143676;28;20223;-56
2022/07/12 06:29:55;;;;;;;5.65;5.05;;;18.80;99.90;;;20.89;63.47;98669.25;5143810;28;20572;-55
2022/07/12 06:32:29;;;;;;;5.15;4.75;;;19.30;99.90;;;21.52;61.03;98665.81;5140897;28;20294;-57
2022/07/12 06:35:02;;;;;;;5.00;4.57;;;19.90;99.90;;;22.16;59.95;98666.56;5145532;28;20242;-59
2022/07/12 06:37:36;;;;;;;4.38;4.07;;;20.40;99.90;;;22.93;56.96;98671.81;5137292;28;20211;-59
2022/07/12 06:40:11;;;;;;;3.53;3.10;;;21.00;99.90;;;23.37;55.41;98670.97;5142214;28;20239;-59
2022/07/12 06:42:44;;;;;;;2.92;2.78;;;21.50;99.90;;;23.93;53.26;98673.78;5139058;28;20678;-60
2022/07/12 06:45:18;;;;;;;3.30;3.10;;;21.90;98.60;;;24.77;51.11;98675.94;5139266;28;20620;-59
2022/07/12 06:47:52;;;;;;;2.92;2.30;;;22.50;98.00;;;25.17;48.65;98678.25;5142804;28;20207;-59
2022/07/12 06:50:25;;;;;;;2.40;2.30;;;22.80;95.70;;;24.77;50.36;98679.44;5143719;28;20282;-59
2022/07/12 06:52:59;;;;;;;2.80;2.60;;;22.90;96.00;;;25.11;48.40;98678.13;5137000;28;20235;-60
2022/07/12 06:55:32;;;;;;;2.60;2.40;;;23.00;95.10;;;24.94;50.19;98679.66;5142080;28;20293;-59
2022/07/12 06:58:05;;;;;;;2.60;2.40;;;22.90;95.20;;;25.16;49.12;98686.97;5140547;28;20645;-59
2022/07/12 07:00:39;;;;;;;2.53;2.33;;;22.90;95.50;;;24.90;49.41;98677.88;5144141;28;20259;-60
2022/07/12 07:03:13;;;;;;;2.72;2.53;;;22.80;95.30;;;24.54;50.62;98683.47;5132875;28;20203;-59
2022/07/12 07:05:46;;;;;;;2.97;2.78;;;22.50;96.10;;;24.45;51.08;98684.22;5141136;28;20656;-60
2022/07/12 07:08:19;;;;;;;2.83;2.60;;;22.20;96.20;;;24.16;52.14;98683.72;5140830;28;20234;-59
2022/07/12 07:10:53;;;;;;;2.35;2.25;;;22.10;96.80;;;24.11;52.28;98678.41;5140016;28;20250;-59
2022/07/12 07:13:26;;;;;;;2.80;2.60;;;22.20;97.00;;;24.41;51.86;98687.59;5137017;28;20663;-59
2022/07/12 07:15:59;;;;;;;2.78;2.58;;;22.50;96.90;;;25.10;49.72;98676.41;5132816;28;20235;-60
2022/07/12 07:18:34;;;;;;;2.58;2.22;;;23.20;95.20;;;25.41;49.95;98682.03;5137992;28;20255;-59
2022/07/12 07:21:07;;;;;;;2.70;2.50;;;23.60;95.00;;;25.79;48.17;98678.91;5136243;28;20246;-60
2022/07/12 07:23:40;;;;;;;2.50;2.40;;;24.00;94.00;;;26.44;46.94;98689.09;5136297;28;20637;-59
2022/07/12 07:26:14;;;;;;;2.10;2.00;;;24.60;92.70;;;27.16;44.55;98678.19;5136937;28;20695;-60
2022/07/12 07:31:41;;;;;;;1.73;1.63;;;25.60;91.50;;;28.37;41.67;98691.53;5123492;28;20708;-61
2022/07/12 07:34:15;;;;;;;1.80;1.70;;;26.10;90.00;;;28.71;40.79;98692.41;5139567;28;20255;-60
2022/07/12 07:36:49;;;;;;;1.80;1.70;;;26.30;89.60;;;28.71;41.18;98696.78;5140642;28;20583;-61
2022/07/12 07:39:22;;;;;;;1.67;1.58;;;26.70;88.20;;;28.91;39.20;98694.13;5137743;28;20243;-60
2022/07/12 07:41:55;;;;;;;1.50;1.40;;;26.70;86.20;;;29.25;39.63;98694.91;5136485;28;20286;-61
2022/07/12 07:44:28;;;;;;;1.70;1.30;;;26.80;86.60;;;29.36;39.31;98708.00;5136708;28;21182;-60
2022/07/12 07:47:05;;;;;;;1.30;1.20;;;26.80;86.80;;;29.68;37.76;98707.88;5137776;28;20210;-59
2022/07/12 07:49:40;;;;;;;1.10;1.10;;;26.90;85.10;;;29.82;37.51;98697.25;5136147;28;20254;-60
2022/07/12 07:52:18;;;;;;;1.17;1.10;;;27.00;84.80;;;29.94;38.12;98706.84;5131459;28;20224;-60
2022/07/12 07:54:51;;;;;;;1.05;1.00;;;27.20;85.30;;;30.32;37.57;98692.50;5133533;28;20216;-60
2022/07/12 07:57:24;;;;;;;1.20;1.20;;;27.50;83.80;;;30.48;37.03;98691.47;5138720;28;20208;-61
2022/07/12 07:59:57;;;;;;;1.23;1.17;;;27.50;84.10;;;30.69;36.35;98693.00;5139910;28;20294;-60
2022/07/12 08:02:30;;;;;;;1.50;1.30;;;27.50;83.40;;;30.83;35.68;98695.53;5143615;28;20348;-60
2022/07/12 08:05:06;;;;;;;1.85;1.05;;;27.40;83.00;;;30.59;35.48;98697.53;5134568;28;20195;-61
2022/07/12 08:07:39;;;;;;;2.03;1.30;;;27.00;82.70;;;29.34;38.51;98693.97;5140086;28;20258;-61
2022/07/12 08:10:28;;;;;;;1.13;1.10;;;26.30;85.20;;;28.59;39.82;98696.78;5137541;28;20238;-60
2022/07/12 08:13:01;;;;;;;1.63;1.33;;;25.60;86.90;;;27.93;40.18;98704.66;5139063;28;20231;-60
2022/07/12 08:15:34;;;;;;;1.63;1.20;;;24.90;88.20;;;26.93;42.95;98704.31;5142271;28;20258;-60
2022/07/12 08:18:08;;;;;;;1.08;1.05;;;24.40;90.20;;;26.48;43.93;98698.75;5143490;28;20290;-60
2022/07/12 08:20:42;;;;;;;1.20;1.10;;;24.20;90.60;;;25.99;44.39;98698.34;5143037;28;20665;-60
2022/07/12 08:23:19;;;;;;;1.15;1.15;;;24.00;90.60;;;25.66;46.08;98692.75;5140573;28;20207;-60
2022/07/12 08:25:52;;;;;;;1.05;0.90;;;23.70;91.10;;;25.53;45.76;98695.25;5139944;28;20358;-60
2022/07/12 08:28:25;;;;;;;0.90;0.90;;;23.60;90.90;;;25.67;45.05;98699.72;5138706;28;20236;-60
2022/07/12 08:30:58;;;;;;;1.02;1.00;;;23.60;90.80;;;25.69;45.93;98690.16;5140712;28;20255;-60
2022/07/12 08:33:31;;;;;;;0.90;0.80;;;23.80;91.00;;;25.53;43.83;98682.16;5134123;28;20231;-60
2022/07/12 08:36:08;;;;;;;0.90;0.90;;;23.60;88.30;;;25.21;42.73;98678.28;5139806;28;20256;-59
2022/07/12 08:38:43;;;;;;;0.90;0.90;;;23.50;86.10;;;25.03;43.91;98677.16;5139991;28;20651;-59
2022/07/12 08:41:17;;;;;;;0.80;0.80;;;23.50;88.70;;;24.87;44.39;98689.19;5135186;28;20627;-58
2022/07/12 08:43:50;;;;;;;0.95;0.90;;;23.40;88.40;;;24.84;44.45;98694.38;5140328;28;20690;-60
2022/07/12 08:46:23;;;;;;;0.88;0.88;;;23.50;88.30;;;25.12;44.50;98687.78;5137938;28;20195;-59
2022/07/12 08:48:56;;;;;;;0.80;0.80;;;23.70;88.20;;;25.22;43.87;98695.75;5135576;28;20615;-58
2022/07/12 08:51:31;;;;;;;0.80;0.80;;;23.90;87.40;;;25.39;43.99;98697.69;5135912;28;20632;-59
2022/07/12 08:54:08;;;;;;;1.42;0.80;;;24.00;88.00;;;25.38;44.33;98695.06;5136204;28;20245;-60
2022/07/12 08:56:44;;;;;;;0.85;0.85;;;24.00;86.60;;;25.45;43.92;98702.13;5141638;28;20269;-59
2022/07/12 08:59:20;;;;;;;0.70;0.70;;;24.00;88.40;;;25.84;43.36;98701.72;5135899;28;20231;-59
2022/07/12 09:01:55;;;;;;;0.90;0.90;;;24.70;85.50;;;26.65;42.41;98703.25;5135138;28;20747;-60
2022/07/12 09:04:28;;;;;;;1.00;0.70;;;25.60;84.50;;;27.31;40.10;98704.50;5143680;28;20671;-60
2022/07/12 09:07:15;;;;;;;0.80;0.80;;;26.30;81.10;;;27.06;39.49;98710.47;5139053;28;20220;-59
2022/07/12 09:09:50;;;;;;;0.77;0.70;;;26.10;79.40;;;26.58;40.56;98709.31;5142734;28;20688;-60
2022/07/12 09:12:23;;;;;;;0.80;0.80;;;25.60;81.50;;;26.98;39.87;98709.56;5136974;28;20255;-60
2022/07/12 09:15:11;;;;;;;1.08;0.80;;;26.00;79.70;;;27.04;38.94;98720.09;5144121;28;20227;-60
2022/07/12 09:17:58;;;;;;;0.93;0.70;;;26.30;79.00;;;27.51;38.10;98711.56;5143147;28;20203;-59
2022/07/12 09:20:33;;;;;;;1.45;0.82;;;26.50;77.00;;;27.27;37.97;98713.25;5134906;28;20598;-59
2022/07/12 09:23:11;;;;;;;0.85;0.85;;;26.10;78.40;;;27.35;38.00;98708.88;5144197;28;20200;-59
2022/07/12 09:25:46;;;;;;;0.70;0.70;;;26.00;78.60;;;27.06;38.96;98707.84;5144843;28;20235;-60
2022/07/12 09:28:19;;;;;;;0.70;0.70;;;25.70;80.00;;;26.95;38.75;98711.28;5136073;28;20558;-60
2022/07/12 09:30:54;;;;;;;0.60;0.60;;;25.50;79.20;;;26.62;39.33;98708.50;5141061;28;20788;-60
2022/07/12 09:36:25;;;;;;;0.70;0.68;;;25.10;80.50;;;26.24;39.81;98719.50;5134737;28;20258;-59
2022/07/12 09:39:01;;;;;;;0.70;0.70;;;24.90;80.00;;;26.22;40.82;98713.41;5137845;28;20734;-59
2022/07/12 09:41:35;;;;;;;0.80;0.80;;;24.70;82.20;;;26.15;41.38;98708.97;5143809;28;20231;-60
2022/07/12 09:44:09;;;;;;;0.70;0.70;;;24.90;82.70;;;26.00;40.87;98710.56;5138753;28;20715;-60
2022/07/12 09:46:44;;;;;;;0.70;0.70;;;24.90;80.90;;;26.10;40.68;98710.66;5137558;28;20200;-60
2022/07/12 09:49:18;;;;;;;0.60;0.60;;;24.90;80.30;;;26.02;41.41;98719.34;5140910;28;20196;-59
2022/07/12 09:51:59;;;;;;;0.70;0.60;;;24.90;81.00;;;25.94;40.27;98714.91;5142513;28;20230;-59
2022/07/12 09:54:40;;;;;;;0.60;0.60;;;24.80;80.40;;;25.98;40.06;98714.03;5135080;28;20223;-59
2022/07/12 09:57:22;;;;;;;0.70;0.70;;;24.50;80.20;;;25.87;41.82;98719.22;5136005;28;20270;-60
2022/07/12 09:59:55;;;;;;;0.75;0.73;;;24.80;82.10;;;26.24;41.47;98724.75;5138541;28;20286;-59
2022/07/12 10:02:29;;;;;;;0.70;0.70;;;25.50;81.40;;;26.68;39.89;98711.16;5133379;28;20289;-58
2022/07/12 10:05:05;;;;;;;0.73;0.70;;;26.00;78.90;;;27.03;39.34;98715.72;5129526;28;20284;-59
2022/07/12 10:07:39;;;;;;;0.60;0.60;;;26.00;78.40;;;27.04;38.77;98720.09;5127043;28;20249;-58
2022/07/12 10:10:14;;;;;;;0.88;0.88;;;25.80;78.20;;;27.09;38.35;98710.50;5133701;28;20245;-59
2022/07/12 10:12:47;;;;;;;1.05;0.88;;;25.80;77.90;;;27.02;38.53;98712.22;5133870;28;20295;-60
2022/07/12 10:15:26;;;;;;;0.73;0.70;;;25.80;77.70;;;26.93;38.29;98709.56;5139949;28;20585;-58
2022/07/12 10:18:01;;;;;;;0.60;0.60;;;25.60;77.40;;;26.66;40.10;98715.50;5141573;28;20200;-58
2022/07/12 10:20:42;;;;;;;0.70;0.70;;;25.30;80.50;;;26.17;41.01;98717.72;5128827;28;20220;-58
2022/07/12 10:23:37;;;;;;;0.68;0.68;;;25.00;81.60;;;25.90;41.52;98711.38;5127927;28;20614;-59
2022/07/12 10:26:39;;;;;;;0.80;0.80;;;24.60;82.10;;;25.86;41.68;98712.19;5130770;28;20200;-58
2022/07/12 10:29:20;;;;;;;0.70;0.70;;;24.50;82.30;;;25.83;41.16;98707.78;5132543;28;20785;-59
2022/07/12 10:31:54;;;;;;;0.80;0.80;;;24.60;81.40;;;25.95;41.65;98706.16;5130053;28;20823;-59
2022/07/12 10:34:29;;;;;;;0.73;0.73;;;24.80;81.50;;;26.22;41.61;98705.53;5133867;28;20204;-59
2022/07/12 10:37:12;;;;;;;0.85;0.85;;;25.20;81.50;;;26.39;40.78;98700.44;5137304;28;20258;-58
2022/07/12 10:40:13;;;;;;;1.15;0.70;;;25.50;79.70;;;26.68;40.00;98695.41;5134992;28;20702;-60
2022/07/12 10:43:17;;;;;;;0.80;0.80;;;25.90;78.50;;;27.04;39.09;98686.88;5135595;28;20330;-59
2022/07/12 10:45:51;;;;;;;1.13;0.90;;;25.90;78.50;;;27.10;39.21;98686.88;5134997;28;20199;-59
2022/07/12 10:48:24;;;;;;;1.25;0.80;;;26.10;78.60;;;27.26;38.32;98684.34;5131304;28;20207;-60
2022/07/12 10:50:58;;;;;;;0.70;0.70;;;26.30;76.80;;;27.27;38.41;98681.75;5134972;28;20278;-59
2022/07/12 10:53:33;;;;;;;0.70;0.70;;;26.30;76.90;;;27.26;38.73;98684.34;5139698;28;20675;-60
2022/07/12 10:56:19;;;;;;;0.85;0.70;;;26.30;77.80;;;27.37;37.86;98680.88;5141820;28;20294;-59
2022/07/12 10:59:00;;;;;;;0.70;0.70;;;26.40;75.90;;;27.33;38.16;98681.75;5140808;28;20562;-58